Time;durP1;ratioP1;P1;durP2;ratioP2;P2;SDS_P1;SDS_P2;PMS_P1;PMS_P2;Temp;Humidity;BMP_temperature;BMP_pressure;BME280_temperature;BME280_humidity;BME280_pressure;Samples;Min_cycle;Max_cycle;Signal;HPM_P1;HPM_P2
2023/04/06 00:01:40;;;;;;;10.40;6.10;;;0.90;84.10;;;;;;4879663;29;20394;-68
2023/04/06 00:04:06;;;;;;;9.30;5.90;;;0.90;84.50;;;;;;4878857;29;20063;-68
2023/04/06 00:06:32;;;;;;;12.18;6.40;;;0.90;85.60;;;;;;4875975;29;20520;-68
2023/04/06 00:08:58;;;;;;;10.88;5.90;;;0.80;84.90;;;;;;4862644;29;20047;-68
2023/04/06 00:11:24;;;;;;;10.85;6.63;;;0.80;85.70;;;;;;4878108;29;20084;-68
2023/04/06 00:13:50;;;;;;;10.02;6.30;;;0.80;85.40;;;;;;4871797;29;20057;-68
2023/04/06 00:16:16;;;;;;;10.90;6.03;;;0.80;85.10;;;;;;4864439;29;20143;-68
2023/04/06 00:18:42;;;;;;;8.70;5.70;;;0.80;85.30;;;;;;4879059;29;20053;-68
2023/04/06 00:21:07;;;;;;;8.97;5.77;;;0.80;85.40;;;;;;4877382;29;20040;-68
2023/04/06 00:23:33;;;;;;;11.00;6.20;;;0.80;85.90;;;;;;4876135;29;20128;-68
2023/04/06 00:25:59;;;;;;;9.03;5.83;;;0.80;85.90;;;;;;4877015;29;20386;-68
2023/04/06 00:28:29;;;;;;;9.83;6.57;;;0.70;86.50;;;;;;4881090;29;20052;-68
2023/04/06 00:30:55;;;;;;;9.32;6.13;;;0.70;86.30;;;;;;4878601;29;20049;-68
2023/04/06 00:33:22;;;;;;;8.63;5.73;;;0.70;86.10;;;;;;4881581;29;20044;-68
2023/04/06 00:35:48;;;;;;;9.55;5.97;;;0.70;86.30;;;;;;4881911;29;20108;-68
2023/04/06 00:38:15;;;;;;;12.83;6.60;;;0.70;87.00;;;;;;4875364;29;20052;-68
2023/04/06 00:40:41;;;;;;;11.15;6.25;;;0.70;86.80;;;;;;4876607;29;20072;-68
2023/04/06 00:43:10;;;;;;;9.48;6.10;;;0.70;86.90;;;;;;4869745;29;20516;-68
2023/04/06 00:45:37;;;;;;;9.30;6.15;;;0.70;87.10;;;;;;4879596;29;20044;-68
2023/04/06 00:48:03;;;;;;;11.90;7.35;;;0.70;87.00;;;;;;4869338;29;20044;-68
2023/04/06 00:50:30;;;;;;;11.07;6.87;;;0.70;87.00;;;;;;4877713;29;20044;-68
2023/04/06 00:52:55;;;;;;;9.52;5.90;;;0.60;86.70;;;;;;4878279;29;20048;-68
2023/04/06 00:55:21;;;;;;;12.30;6.43;;;0.70;86.70;;;;;;4877544;29;20037;-68
2023/04/06 00:57:47;;;;;;;8.13;6.27;;;0.60;87.10;;;;;;4864026;29;20047;-68
2023/04/06 01:00:13;;;;;;;13.60;7.40;;;0.60;87.30;;;;;;4860749;29;20108;-68
2023/04/06 01:02:39;;;;;;;11.02;7.18;;;0.60;87.90;;;;;;4876667;29;20281;-68
2023/04/06 01:05:06;;;;;;;11.10;7.35;;;0.60;87.70;;;;;;4880543;29;20067;-68
2023/04/06 01:07:32;;;;;;;9.80;6.65;;;0.50;88.10;;;;;;4877635;29;20051;-68
2023/04/06 01:09:58;;;;;;;9.47;6.37;;;0.50;87.90;;;;;;4870131;29;20044;-68
2023/04/06 01:12:24;;;;;;;10.60;7.13;;;0.50;87.50;;;;;;4875897;29;20053;-68
2023/04/06 01:14:50;;;;;;;9.93;7.18;;;0.40;88.20;;;;;;4876556;29;20040;-68
2023/04/06 01:17:16;;;;;;;12.20;7.00;;;0.40;88.20;;;;;;4882652;29;20115;-68
2023/04/06 01:19:42;;;;;;;11.15;7.00;;;0.40;88.10;;;;;;4877444;29;20822;-68
2023/04/06 01:22:08;;;;;;;9.03;6.63;;;0.30;88.10;;;;;;4868828;29;20068;-68
2023/04/06 01:24:34;;;;;;;12.25;7.93;;;0.30;89.10;;;;;;4861973;29;20052;-68
2023/04/06 01:27:00;;;;;;;11.50;6.63;;;0.30;89.30;;;;;;4852948;29;20214;-68
2023/04/06 01:29:26;;;;;;;9.85;7.10;;;0.30;89.80;;;;;;4856077;29;20032;-68
2023/04/06 01:31:52;;;;;;;8.67;6.57;;;0.30;89.80;;;;;;4876411;29;20062;-68
2023/04/06 01:34:18;;;;;;;10.97;6.53;;;0.20;89.50;;;;;;4876308;29;20052;-68
2023/04/06 01:36:44;;;;;;;9.93;6.90;;;0.20;90.40;;;;;;4876895;29;20045;-68
2023/04/06 01:39:10;;;;;;;9.85;6.68;;;0.20;90.30;;;;;;4879321;29;20045;-68
2023/04/06 01:41:36;;;;;;;9.57;6.88;;;0.20;90.70;;;;;;4861720;29;20037;-68
2023/04/06 01:44:02;;;;;;;10.80;6.88;;;0.10;90.70;;;;;;4879840;29;20468;-68
2023/04/06 01:46:28;;;;;;;11.05;7.18;;;0.10;90.70;;;;;;4877160;29;20123;-68
2023/04/06 01:48:54;;;;;;;10.37;7.23;;;0.10;90.40;;;;;;4874125;29;20127;-67
2023/04/06 01:51:20;;;;;;;10.40;6.72;;;0.10;91.10;;;;;;4877010;29;20048;-67
2023/04/06 01:53:45;;;;;;;12.17;7.23;;;0.10;91.30;;;;;;4871437;29;20059;-67
2023/04/06 01:56:11;;;;;;;10.17;7.43;;;0.00;90.70;;;;;;4876356;29;20032;-67
2023/04/06 01:58:37;;;;;;;10.27;6.50;;;0.00;90.80;;;;;;4860429;29;20037;-67
2023/04/06 02:01:03;;;;;;;9.23;6.90;;;0.00;91.00;;;;;;4877583;29;20476;-67
2023/04/06 02:03:28;;;;;;;10.77;7.10;;;0.00;91.50;;;;;;4875410;29;20135;-67
2023/04/06 02:05:54;;;;;;;12.07;7.17;;;0.00;91.20;;;;;;4876488;29;20048;-67
2023/04/06 02:08:20;;;;;;;9.90;7.07;;;0.00;91.30;;;;;;4870869;29;20057;-67
2023/04/06 02:10:45;;;;;;;10.60;7.17;;;0.00;91.70;;;;;;4876689;29;20053;-67
2023/04/06 02:13:11;;;;;;;10.70;6.90;;;0.00;91.30;;;;;;4875259;29;20386;-67
2023/04/06 02:15:37;;;;;;;10.50;7.00;;;-0.10;91.40;;;;;;4860732;29;20481;-67
2023/04/06 02:18:03;;;;;;;9.57;6.97;;;-0.10;92.20;;;;;;4876492;29;20417;-67
2023/04/06 02:20:28;;;;;;;9.13;6.83;;;-0.10;92.30;;;;;;4871179;29;20041;-67
2023/04/06 02:22:56;;;;;;;12.33;7.23;;;-0.10;92.40;;;;;;4873228;29;20528;-67
2023/04/06 02:25:21;;;;;;;10.10;7.47;;;-0.10;93.10;;;;;;4858399;29;20037;-67
2023/04/06 02:27:47;;;;;;;12.00;7.63;;;-0.10;92.60;;;;;;4876045;29;20048;-67
2023/04/06 02:30:13;;;;;;;11.23;6.80;;;-0.20;93.00;;;;;;4875798;29;20076;-67
2023/04/06 02:32:39;;;;;;;9.53;7.13;;;-0.20;94.10;;;;;;4873030;29;20075;-68
2023/04/06 02:35:05;;;;;;;10.90;7.67;;;-0.20;94.50;;;;;;4859255;29;20072;-68
2023/04/06 02:37:30;;;;;;;12.07;7.25;;;-0.20;95.10;;;;;;4876351;29;20047;-68
2023/04/06 02:39:56;;;;;;;12.20;7.20;;;-0.30;94.90;;;;;;4867584;29;20040;-68
2023/04/06 02:42:22;;;;;;;9.27;6.97;;;-0.20;95.70;;;;;;4876711;29;20036;-68
2023/04/06 02:44:48;;;;;;;12.40;7.63;;;-0.30;96.10;;;;;;4872500;29;20080;-68
2023/04/06 02:47:13;;;;;;;12.07;7.70;;;-0.30;96.80;;;;;;4875102;29;20053;-68
2023/04/06 02:49:39;;;;;;;10.57;7.67;;;-0.30;96.00;;;;;;4878727;29;20059;-68
2023/04/06 02:52:05;;;;;;;12.37;7.23;;;-0.40;95.80;;;;;;4860830;29;20323;-68
2023/04/06 02:54:31;;;;;;;12.27;7.73;;;-0.40;97.20;;;;;;4875745;29;20520;-68
2023/04/06 02:56:56;;;;;;;10.53;7.77;;;-0.40;97.30;;;;;;4859724;29;20684;-68
2023/04/06 02:59:22;;;;;;;12.27;7.60;;;-0.40;98.90;;;;;;4876149;29;20521;-68
2023/04/06 03:01:48;;;;;;;10.60;7.47;;;-0.40;99.00;;;;;;4874172;29;20051;-68
2023/04/06 03:04:14;;;;;;;10.50;7.43;;;-0.40;99.90;;;;;;4875986;29;20051;-68
2023/04/06 03:06:39;;;;;;;10.87;7.93;;;-0.40;99.00;;;;;;4874110;29;20442;-68
2023/04/06 03:09:06;;;;;;;11.23;8.00;;;-0.50;98.00;;;;;;4876158;29;20199;-68
2023/04/06 03:11:32;;;;;;;11.73;7.75;;;-0.50;98.60;;;;;;4875816;29;20065;-68
2023/04/06 03:13:58;;;;;;;11.07;7.93;;;-0.60;99.10;;;;;;4876100;29;20069;-68
2023/04/06 03:16:24;;;;;;;11.70;8.05;;;-0.50;99.90;;;;;;4875374;29;20551;-67
2023/04/06 03:18:50;;;;;;;12.90;8.80;;;-0.60;99.50;;;;;;4875632;29;20041;-67
2023/04/06 03:21:16;;;;;;;12.67;7.93;;;-0.60;98.60;;;;;;4876941;29;20040;-68
2023/04/06 03:23:42;;;;;;;11.50;7.97;;;-0.60;98.80;;;;;;4872206;29;20509;-68
2023/04/06 03:26:08;;;;;;;12.27;7.63;;;-0.60;99.90;;;;;;4873980;29;20044;-68
2023/04/06 03:28:34;;;;;;;14.30;8.20;;;-0.60;99.90;;;;;;4873943;29;20084;-68
2023/04/06 03:31:00;;;;;;;11.10;7.90;;;-0.60;99.50;;;;;;4858411;29;20510;-68
2023/04/06 03:33:27;;;;;;;11.07;7.43;;;-0.60;99.30;;;;;;4878288;29;20072;-68
2023/04/06 03:35:53;;;;;;;11.77;8.07;;;-0.60;99.90;;;;;;4876939;29;20766;-68
2023/04/06 03:38:19;;;;;;;10.98;7.35;;;-0.60;99.90;;;;;;4869240;29;20037;-68
2023/04/06 03:40:45;;;;;;;11.68;7.65;;;-0.60;99.90;;;;;;4867662;29;20084;-68
2023/04/06 03:43:11;;;;;;;8.87;7.07;;;-0.60;99.90;;;;;;4873769;29;20049;-68
2023/04/06 03:45:37;;;;;;;12.43;8.87;;;-0.60;99.90;;;;;;4862052;29;20049;-68
2023/04/06 03:48:03;;;;;;;13.38;8.02;;;-0.60;99.90;;;;;;4859216;29;20421;-68
2023/04/06 03:50:29;;;;;;;10.95;8.10;;;-0.60;99.90;;;;;;4869429;29;20048;-68
2023/04/06 03:52:55;;;;;;;14.97;8.20;;;-0.60;99.90;;;;;;4876383;29;20497;-68
2023/04/06 03:55:21;;;;;;;13.75;8.35;;;-0.60;99.90;;;;;;4873655;29;20052;-68
2023/04/06 03:57:46;;;;;;;12.37;8.77;;;-0.60;99.90;;;;;;4876841;29;20485;-68
2023/04/06 04:00:13;;;;;;;10.43;8.27;;;-0.60;99.90;;;;;;4877366;29;20413;-68
2023/04/06 04:02:39;;;;;;;9.20;7.57;;;-0.60;99.90;;;;;;4861505;29;20056;-68
2023/04/06 04:05:05;;;;;;;11.45;7.90;;;-0.60;99.90;;;;;;4877173;29;20049;-68
2023/04/06 04:07:31;;;;;;;12.57;9.00;;;-0.60;99.90;;;;;;4855489;29;20052;-68
2023/04/06 04:09:57;;;;;;;13.97;8.67;;;-0.60;99.90;;;;;;4876265;29;20036;-68
2023/04/06 04:12:22;;;;;;;11.97;8.33;;;-0.60;99.90;;;;;;4876785;29;20289;-68
2023/04/06 04:14:48;;;;;;;9.50;7.80;;;-0.60;99.90;;;;;;4861001;29;20061;-68
2023/04/06 04:17:14;;;;;;;12.87;9.27;;;-0.60;99.90;;;;;;4877095;29;20052;-68
2023/04/06 04:19:40;;;;;;;15.03;9.33;;;-0.60;99.90;;;;;;4859729;29;20059;-68
2023/04/06 04:22:06;;;;;;;12.00;9.10;;;-0.70;99.90;;;;;;4870738;29;20037;-68
2023/04/06 04:24:32;;;;;;;12.90;8.23;;;-0.60;99.90;;;;;;4874344;29;20080;-68
2023/04/06 04:26:58;;;;;;;12.13;8.53;;;-0.70;99.90;;;;;;4876961;29;20538;-68
2023/04/06 04:29:23;;;;;;;11.73;8.50;;;-0.70;99.90;;;;;;4875734;29;20308;-68
2023/04/06 04:31:50;;;;;;;12.07;8.23;;;-0.70;99.90;;;;;;4877460;29;20201;-68
2023/04/06 04:34:16;;;;;;;13.38;8.55;;;-0.70;99.90;;;;;;4876948;29;20052;-68
2023/04/06 04:36:42;;;;;;;11.47;8.23;;;-0.60;99.90;;;;;;4877485;29;20045;-68
2023/04/06 04:39:08;;;;;;;13.03;8.60;;;-0.60;99.90;;;;;;4863611;29;20044;-68
2023/04/06 04:41:34;;;;;;;14.07;8.60;;;-0.60;99.90;;;;;;4877546;29;20328;-68
2023/04/06 04:44:00;;;;;;;12.07;8.33;;;-0.60;99.90;;;;;;4876693;29;20078;-68
2023/04/06 04:46:26;;;;;;;14.90;8.82;;;-0.50;99.90;;;;;;4869715;29;20064;-68
2023/04/06 04:48:52;;;;;;;12.63;8.93;;;-0.50;99.90;;;;;;4876241;29;20044;-68
2023/04/06 04:51:17;;;;;;;13.23;8.80;;;-0.50;99.90;;;;;;4871116;29;20052;-68
2023/04/06 04:53:43;;;;;;;15.70;8.93;;;-0.50;99.90;;;;;;4874339;29;20075;-68
2023/04/06 04:56:09;;;;;;;11.80;8.73;;;-0.50;99.90;;;;;;4879200;29;20552;-68
2023/04/06 04:58:35;;;;;;;12.83;8.47;;;-0.40;99.90;;;;;;4881168;29;20048;-68
2023/04/06 05:01:01;;;;;;;15.90;8.82;;;-0.40;99.90;;;;;;4876558;29;20041;-68
2023/04/06 05:03:27;;;;;;;11.70;8.83;;;-0.40;99.90;;;;;;4879662;29;20051;-68
2023/04/06 05:05:53;;;;;;;13.30;8.43;;;-0.30;99.90;;;;;;4876380;29;20056;-68
2023/04/06 05:08:18;;;;;;;12.70;9.07;;;-0.30;99.90;;;;;;4880814;29;20135;-68
2023/04/06 05:10:45;;;;;;;12.13;8.63;;;-0.30;99.90;;;;;;4875052;29;20045;-68
2023/04/06 05:13:11;;;;;;;12.02;8.77;;;-0.30;99.90;;;;;;4875184;29;20059;-68
2023/04/06 05:15:40;;;;;;;16.77;8.52;;;-0.20;99.90;;;;;;4860723;29;20060;-68
2023/04/06 05:18:06;;;;;;;15.35;8.98;;;-0.20;99.90;;;;;;4876419;29;20036;-68
2023/04/06 05:20:32;;;;;;;12.73;8.57;;;-0.10;99.90;;;;;;4874809;29;20509;-68
2023/04/06 05:22:58;;;;;;;15.30;9.03;;;-0.10;99.90;;;;;;4875579;29;20040;-68
2023/04/06 05:25:24;;;;;;;13.23;8.97;;;-0.10;99.90;;;;;;4872618;29;20040;-68
2023/04/06 05:27:49;;;;;;;14.77;9.70;;;0.00;99.90;;;;;;4860697;29;20569;-68
2023/04/06 05:30:15;;;;;;;13.10;9.60;;;0.00;99.90;;;;;;4867428;29;20039;-68
2023/04/06 05:32:43;;;;;;;14.80;9.37;;;0.10;99.90;;;;;;4873645;29;20044;-68
2023/04/06 05:35:09;;;;;;;13.20;9.55;;;0.10;99.90;;;;;;4871331;29;20052;-68
2023/04/06 05:37:35;;;;;;;12.23;9.18;;;0.20;99.90;;;;;;4858301;29;20061;-68
2023/04/06 05:40:00;;;;;;;13.37;9.53;;;0.30;99.90;;;;;;4874661;29;20048;-68
2023/04/06 05:42:26;;;;;;;14.77;9.23;;;0.30;99.90;;;;;;4874089;29;20048;-68
2023/04/06 05:44:52;;;;;;;13.00;9.18;;;0.40;99.90;;;;;;4875406;29;20072;-68
2023/04/06 05:47:18;;;;;;;15.90;9.30;;;0.50;99.90;;;;;;4875972;29;20477;-68
2023/04/06 05:49:44;;;;;;;15.63;9.40;;;0.60;99.90;;;;;;4871227;29;20079;-68
2023/04/06 05:52:10;;;;;;;13.23;9.20;;;0.70;99.90;;;;;;4874932;29;20083;-68
2023/04/06 05:54:39;;;;;;;13.43;9.20;;;0.70;99.90;;;;;;4857340;29;20033;-68
2023/04/06 05:57:04;;;;;;;14.93;9.10;;;0.80;99.90;;;;;;4867754;29;20213;-68
2023/04/06 05:59:31;;;;;;;13.93;9.67;;;0.90;99.90;;;;;;4870764;29;20596;-68
2023/04/06 06:01:57;;;;;;;14.50;9.27;;;0.90;99.90;;;;;;4873763;29;20033;-68
2023/04/06 06:04:22;;;;;;;14.63;9.40;;;1.00;99.90;;;;;;4865775;29;20047;-68
2023/04/06 06:06:48;;;;;;;13.57;9.17;;;1.10;99.90;;;;;;4872258;29;20048;-68
2023/04/06 06:09:14;;;;;;;15.43;9.57;;;1.20;99.90;;;;;;4873605;29;20059;-68
2023/04/06 06:11:40;;;;;;;13.00;8.57;;;1.20;99.90;;;;;;4871525;29;20056;-68
2023/04/06 06:14:06;;;;;;;14.07;9.15;;;1.30;99.90;;;;;;4871510;29;20136;-68
2023/04/06 06:16:32;;;;;;;16.83;9.33;;;1.30;99.90;;;;;;4875085;29;20147;-68
2023/04/06 06:18:58;;;;;;;15.35;9.63;;;1.40;99.90;;;;;;4876393;29;20045;-68
2023/04/06 06:21:24;;;;;;;14.87;9.50;;;1.50;99.90;;;;;;4875246;29;20821;-68
2023/04/06 06:23:50;;;;;;;15.98;9.63;;;1.60;99.90;;;;;;4872011;29;20059;-68
2023/04/06 06:26:16;;;;;;;17.17;9.90;;;1.70;99.90;;;;;;4874910;29;20052;-68
2023/04/06 06:28:42;;;;;;;14.80;9.90;;;1.90;99.90;;;;;;4873311;29;20064;-68
2023/04/06 06:31:07;;;;;;;13.30;8.60;;;2.10;98.90;;;;;;4875465;29;20383;-68
2023/04/06 06:33:33;;;;;;;11.90;8.23;;;2.30;97.90;;;;;;4872202;29;20053;-68
2023/04/06 06:35:59;;;;;;;13.97;9.23;;;2.50;96.40;;;;;;4874264;29;20048;-68
2023/04/06 06:38:25;;;;;;;17.20;9.40;;;2.60;93.90;;;;;;4871252;29;20699;-68
2023/04/06 06:40:50;;;;;;;13.23;8.40;;;2.60;92.60;;;;;;4872647;29;20072;-68
2023/04/06 06:43:16;;;;;;;15.30;9.53;;;2.60;92.60;;;;;;4872174;29;20041;-68
2023/04/06 06:45:42;;;;;;;13.20;9.53;;;2.60;91.80;;;;;;4857019;29;20045;-68
2023/04/06 06:48:08;;;;;;;14.77;9.07;;;2.60;92.50;;;;;;4874203;29;20059;-68
2023/04/06 06:50:33;;;;;;;13.47;8.83;;;2.70;92.90;;;;;;4875548;29;20068;-68
2023/04/06 06:52:59;;;;;;;15.07;9.27;;;2.90;93.70;;;;;;4875678;29;20159;-68
2023/04/06 06:55:26;;;;;;;13.37;8.73;;;3.10;93.30;;;;;;4875331;29;20112;-68
2023/04/06 06:57:52;;;;;;;15.18;9.75;;;3.40;93.30;;;;;;4869519;29;20116;-68
2023/04/06 07:00:20;;;;;;;14.43;9.77;;;3.70;92.40;;;;;;4869664;29;20040;-68
2023/04/06 07:02:47;;;;;;;14.73;9.98;;;4.00;92.50;;;;;;4871740;29;20048;-68
2023/04/06 07:05:13;;;;;;;13.75;9.18;;;4.40;90.40;;;;;;4871862;29;20049;-68
2023/04/06 07:07:39;;;;;;;11.77;8.70;;;4.70;87.40;;;;;;4876987;29;20075;-68
2023/04/06 07:10:05;;;;;;;12.97;9.17;;;4.90;85.20;;;;;;4866758;29;20083;-69
2023/04/06 07:12:31;;;;;;;14.55;9.68;;;5.00;85.00;;;;;;4879883;29;20131;-68
2023/04/06 07:14:57;;;;;;;16.37;9.83;;;5.10;83.20;;;;;;4853964;29;20110;-68
2023/04/06 07:17:22;;;;;;;14.63;9.50;;;5.20;81.70;;;;;;4883819;29;20581;-68
2023/04/06 07:19:48;;;;;;;15.40;8.53;;;5.20;81.70;;;;;;4877082;29;20053;-68
2023/04/06 07:22:14;;;;;;;16.23;10.37;;;5.30;82.00;;;;;;4874582;29;20088;-68
2023/04/06 07:24:41;;;;;;;14.77;10.03;;;5.30;80.50;;;;;;4881931;29;20104;-69
2023/04/06 07:27:07;;;;;;;14.38;9.93;;;5.30;80.90;;;;;;4885903;29;20119;-70
2023/04/06 07:29:33;;;;;;;13.63;9.47;;;5.40;80.00;;;;;;4885237;29;20179;-69
2023/04/06 07:31:58;;;;;;;13.73;10.30;;;5.50;80.30;;;;;;4881416;29;20063;-69
2023/04/06 07:34:24;;;;;;;15.50;9.80;;;5.60;80.70;;;;;;4873475;29;20087;-69
2023/04/06 07:36:52;;;;;;;14.73;8.70;;;5.70;79.00;;;;;;4883696;29;20064;-70
2023/04/06 07:39:18;;;;;;;14.10;9.77;;;5.80;78.40;;;;;;4883491;29;20040;-69
2023/04/06 07:41:44;;;;;;;13.47;9.40;;;6.00;77.70;;;;;;4877668;29;20051;-69
2023/04/06 07:44:09;;;;;;;14.23;9.73;;;6.10;75.40;;;;;;4880748;29;20679;-70
2023/04/06 07:46:38;;;;;;;15.20;9.90;;;6.30;76.10;;;;;;4848532;29;20080;-70
2023/04/06 07:49:04;;;;;;;16.97;10.47;;;6.50;76.80;;;;;;4874374;29;20448;-70
2023/04/06 07:51:30;;;;;;;13.33;9.27;;;6.60;76.00;;;;;;4878851;29;20191;-70
2023/04/06 07:53:56;;;;;;;14.80;10.18;;;6.80;74.20;;;;;;4885630;29;20124;-70
2023/04/06 07:56:22;;;;;;;13.57;9.68;;;7.00;73.70;;;;;;4866306;29;20468;-69
2023/04/06 07:58:56;;;;;;;14.60;9.40;;;7.30;72.40;;;;;;4882965;29;20123;-70
2023/04/06 08:01:22;;;;;;;15.52;9.43;;;7.50;70.70;;;;;;4881793;29;20040;-71
2023/04/06 08:03:48;;;;;;;15.75;9.90;;;7.70;66.30;;;;;;4881666;29;20623;-70
2023/04/06 08:06:14;;;;;;;12.13;9.27;;;7.90;65.60;;;;;;4878806;29;20048;-70
2023/04/06 08:08:41;;;;;;;14.48;10.02;;;8.10;65.20;;;;;;4865722;29;20063;-70
2023/04/06 08:11:07;;;;;;;15.18;10.32;;;8.30;60.40;;;;;;4882060;29;20072;-70
2023/04/06 08:13:35;;;;;;;14.13;10.03;;;8.40;61.40;;;;;;4881419;29;20492;-70
2023/04/06 08:16:01;;;;;;;14.63;10.02;;;8.50;59.90;;;;;;4850209;29;20438;-69
2023/04/06 08:18:27;;;;;;;14.90;10.65;;;8.60;60.30;;;;;;4880686;29;20056;-70
2023/04/06 08:20:55;;;;;;;17.85;10.73;;;8.70;58.60;;;;;;4863610;29;20048;-70
2023/04/06 08:23:20;;;;;;;16.02;10.90;;;8.80;58.70;;;;;;4878926;29;20111;-70
2023/04/06 08:25:46;;;;;;;16.57;10.37;;;8.80;59.10;;;;;;4882562;29;20135;-70
2023/04/06 08:28:12;;;;;;;14.50;10.37;;;9.00;60.30;;;;;;4881054;29;20303;-71
2023/04/06 08:30:42;;;;;;;18.17;12.10;;;9.00;57.60;;;;;;4875351;29;20048;-70
2023/04/06 08:33:08;;;;;;;16.75;11.20;;;9.10;57.90;;;;;;4864631;29;20051;-71
2023/04/06 08:35:34;;;;;;;16.73;10.40;;;9.20;57.80;;;;;;4869592;29;20059;-70
2023/04/06 08:38:01;;;;;;;15.20;11.27;;;9.30;57.70;;;;;;4877406;29;20040;-70
2023/04/06 08:40:27;;;;;;;17.13;11.65;;;9.50;58.40;;;;;;4879560;29;20108;-70
2023/04/06 08:42:56;;;;;;;17.88;11.43;;;9.50;57.00;;;;;;4880624;29;20044;-70
2023/04/06 08:45:22;;;;;;;18.10;11.35;;;9.60;56.30;;;;;;4868006;29;20057;-71
2023/04/06 08:47:52;;;;;;;16.27;11.68;;;9.60;56.30;;;;;;4880514;29;20509;-71
2023/04/06 08:50:18;;;;;;;18.30;11.90;;;9.70;56.60;;;;;;4867160;29;20056;-70
2023/04/06 08:52:47;;;;;;;16.60;12.63;;;9.80;56.80;;;;;;4879509;29;20052;-72
2023/04/06 08:55:13;;;;;;;20.33;12.57;;;9.80;56.60;;;;;;4878271;29;20067;-70
2023/04/06 08:57:40;;;;;;;18.40;12.27;;;9.90;56.50;;;;;;4893937;29;20049;-71
2023/04/06 09:00:09;;;;;;;18.95;12.80;;;10.00;56.30;;;;;;4878071;29;20451;-70
2023/04/06 09:02:40;;;;;;;17.00;12.40;;;10.10;55.60;;;;;;4874886;29;20037;-71
2023/04/06 09:05:08;;;;;;;20.00;13.13;;;10.30;55.40;;;;;;4855616;29;20041;-73
2023/04/06 09:07:35;;;;;;;18.92;13.13;;;10.50;55.60;;;;;;4878273;29;20055;-70
2023/04/06 09:10:01;;;;;;;21.48;14.02;;;10.70;54.90;;;;;;4877558;29;20123;-70
2023/04/06 09:12:29;;;;;;;17.50;13.00;;;10.80;54.70;;;;;;4878433;29;20136;-71
2023/04/06 09:14:55;;;;;;;21.95;13.95;;;10.90;52.80;;;;;;4878435;29;20112;-70
2023/04/06 09:17:33;;;;;;;21.50;14.23;;;10.90;51.00;;;;;;4879607;29;20386;-71
2023/04/06 09:20:03;;;;;;;20.98;14.05;;;11.00;51.80;;;;;;4876241;29;20045;-70
2023/04/06 09:22:39;;;;;;;20.98;13.80;;;11.00;50.90;;;;;;4871118;29;20041;-70
2023/04/06 09:25:06;;;;;;;21.60;14.05;;;11.10;49.80;;;;;;4870521;29;20041;-70
2023/04/06 09:27:38;;;;;;;20.80;13.90;;;11.10;50.20;;;;;;4887557;29;20044;-70
2023/04/06 09:30:13;;;;;;;23.55;14.32;;;11.30;49.10;;;;;;4860581;29;20501;-71
2023/04/06 09:32:53;;;;;;;19.77;13.82;;;11.40;50.40;;;;;;4870200;29;20044;-71
2023/04/06 09:35:20;;;;;;;22.65;13.70;;;11.50;48.90;;;;;;4881487;29;20036;-71
2023/04/06 09:37:47;;;;;;;21.60;13.73;;;11.60;50.40;;;;;;4854624;29;20053;-71
2023/04/06 09:40:13;;;;;;;19.23;14.05;;;11.70;50.30;;;;;;4874650;29;20037;-71
2023/04/06 09:42:45;;;;;;;23.13;14.35;;;11.80;49.10;;;;;;4874477;29;20156;-71
2023/04/06 09:45:11;;;;;;;22.45;14.73;;;11.80;49.30;;;;;;4877705;29;20048;-71
2023/04/06 09:47:37;;;;;;;21.08;14.45;;;11.90;48.60;;;;;;4876756;29;20071;-71
2023/04/06 09:50:03;;;;;;;19.77;15.40;;;11.80;48.50;;;;;;4876743;29;20405;-71
2023/04/06 09:52:37;;;;;;;20.17;14.23;;;11.90;48.90;;;;;;4861333;29;20344;-71
2023/04/06 09:55:05;;;;;;;21.23;14.68;;;12.00;49.50;;;;;;4876682;29;20394;-71
2023/04/06 09:57:55;;;;;;;20.45;13.70;;;12.00;49.80;;;;;;4888411;29;20053;-71
2023/04/06 10:00:23;;;;;;;20.58;14.48;;;12.10;48.80;;;;;;4870175;29;20033;-71
2023/04/06 10:03:14;;;;;;;21.17;14.97;;;12.10;48.80;;;;;;4874082;29;20044;-71
2023/04/06 10:05:40;;;;;;;21.63;14.73;;;12.10;47.80;;;;;;4866420;29;20757;-71
2023/04/06 10:08:10;;;;;;;21.43;14.60;;;11.90;47.00;;;;;;4874216;29;20349;-71
2023/04/06 10:10:36;;;;;;;21.97;14.70;;;11.70;47.30;;;;;;4868002;29;20072;-71
2023/04/06 10:13:03;;;;;;;22.30;15.00;;;11.70;48.40;;;;;;4875544;29;20409;-71
2023/04/06 10:15:30;;;;;;;21.52;14.88;;;11.60;47.70;;;;;;4865193;29;20515;-71
2023/04/06 10:17:57;;;;;;;21.73;15.23;;;11.70;48.60;;;;;;4877157;29;20044;-71
2023/04/06 10:20:41;;;;;;;21.58;14.38;;;11.70;48.60;;;;;;4865191;29;20513;-71
2023/04/06 10:23:35;;;;;;;21.90;15.32;;;11.70;49.60;;;;;;4868750;29;20533;-71
2023/04/06 10:26:02;;;;;;;22.33;14.98;;;11.80;49.30;;;;;;4876625;29;20515;-71
2023/04/06 10:28:34;;;;;;;22.40;16.25;;;11.90;49.20;;;;;;4877040;29;20059;-71
2023/04/06 10:31:01;;;;;;;24.27;15.53;;;11.90;48.70;;;;;;4876337;29;20472;-71
2023/04/06 10:33:28;;;;;;;26.73;15.27;;;11.90;49.70;;;;;;4875392;29;20320;-71
2023/04/06 10:35:55;;;;;;;22.70;15.10;;;12.00;49.50;;;;;;4876856;29;20311;-71
2023/04/06 10:38:22;;;;;;;24.33;15.02;;;12.00;49.10;;;;;;4876649;29;20364;-71
2023/04/06 10:40:48;;;;;;;25.00;17.20;;;12.00;49.00;;;;;;4878246;29;20450;-71
2023/04/06 10:43:19;;;;;;;23.87;15.87;;;12.10;48.40;;;;;;4883899;29;21050;-71
2023/04/06 10:45:55;;;;;;;22.47;15.97;;;12.10;48.80;;;;;;4883082;29;20404;-71
2023/04/06 10:48:21;;;;;;;28.37;16.30;;;12.10;48.40;;;;;;4876914;29;20368;-71
2023/04/06 10:50:49;;;;;;;24.47;16.13;;;12.20;48.80;;;;;;4883972;29;20368;-71
2023/04/06 10:53:26;;;;;;;25.70;17.07;;;12.20;49.20;;;;;;4883481;29;20044;-71
2023/04/06 10:55:54;;;;;;;25.73;17.27;;;12.30;48.80;;;;;;4884087;29;20308;-71
2023/04/06 10:58:20;;;;;;;26.20;17.93;;;12.40;49.90;;;;;;4884003;29;20308;-71
2023/04/06 11:00:47;;;;;;;27.13;17.23;;;12.50;50.40;;;;;;4879550;29;20931;-71
2023/04/06 11:03:13;;;;;;;28.33;18.00;;;12.60;49.90;;;;;;4882538;29;20131;-71
2023/04/06 11:05:47;;;;;;;27.70;17.37;;;12.70;48.40;;;;;;4875717;29;20296;-72
2023/04/06 11:08:30;;;;;;;28.67;17.30;;;12.70;48.10;;;;;;4881285;29;20289;-71
2023/04/06 11:11:15;;;;;;;28.23;18.07;;;12.70;48.20;;;;;;4885180;29;20296;-71
2023/04/06 11:13:56;;;;;;;26.00;17.57;;;12.70;48.30;;;;;;4893841;29;20411;-71
2023/04/06 11:16:22;;;;;;;24.90;17.33;;;12.80;48.50;;;;;;4894725;29;20308;-71
2023/04/06 11:18:49;;;;;;;24.90;17.27;;;12.80;47.60;;;;;;4885576;29;20315;-72
2023/04/06 11:21:15;;;;;;;24.60;16.03;;;12.80;48.30;;;;;;4878383;29;20814;-72
2023/04/06 11:23:41;;;;;;;27.57;17.60;;;12.90;48.60;;;;;;4864978;29;20293;-71
2023/04/06 11:26:14;;;;;;;28.70;17.60;;;13.00;48.60;;;;;;4881890;29;20052;-72
2023/04/06 11:28:42;;;;;;;30.67;18.07;;;13.00;48.10;;;;;;4881517;29;20124;-73
2023/04/06 11:31:08;;;;;;;25.40;17.43;;;13.20;48.40;;;;;;4885850;29;20284;-72
2023/04/06 11:33:38;;;;;;;23.53;17.03;;;13.20;47.80;;;;;;4892593;29;20343;-72
2023/04/06 11:36:05;;;;;;;25.83;17.57;;;13.30;48.60;;;;;;4884828;29;20289;-72
2023/04/06 11:38:31;;;;;;;24.90;15.87;;;13.40;48.30;;;;;;4883774;29;20285;-72
2023/04/06 11:40:57;;;;;;;26.83;16.30;;;13.50;48.00;;;;;;4881685;29;20307;-72
2023/04/06 11:43:30;;;;;;;24.77;16.17;;;13.40;47.50;;;;;;4878446;29;20055;-71
2023/04/06 11:46:04;;;;;;;25.57;16.93;;;13.40;47.80;;;;;;4880799;29;20155;-71
2023/04/06 11:48:30;;;;;;;24.13;16.83;;;13.30;48.10;;;;;;4879048;29;20646;-71
2023/04/06 11:51:00;;;;;;;26.97;17.10;;;13.40;48.40;;;;;;4882840;29;20289;-71
2023/04/06 11:53:30;;;;;;;26.00;17.33;;;13.40;48.40;;;;;;4879694;29;20353;-71
2023/04/06 11:55:56;;;;;;;26.17;17.47;;;13.40;48.50;;;;;;4878578;29;20372;-71
2023/04/06 11:58:22;;;;;;;27.40;17.17;;;13.40;48.70;;;;;;4864386;29;20619;-71
2023/04/06 12:00:48;;;;;;;24.90;16.37;;;13.30;49.10;;;;;;4880312;29;20284;-71
2023/04/06 12:03:14;;;;;;;25.00;16.63;;;13.30;48.60;;;;;;4876794;29;20044;-71
2023/04/06 12:05:40;;;;;;;23.40;16.73;;;13.30;49.10;;;;;;4862597;29;20505;-71
2023/04/06 12:08:06;;;;;;;24.50;16.97;;;13.30;49.40;;;;;;4874298;29;20284;-72
2023/04/06 12:10:31;;;;;;;23.53;16.67;;;13.30;49.90;;;;;;4878210;29;20044;-71
2023/04/06 12:12:57;;;;;;;22.63;14.90;;;13.20;50.90;;;;;;4878644;29;20036;-72
2023/04/06 12:15:23;;;;;;;16.33;11.67;;;13.10;51.80;;;;;;4877043;29;20052;-71
2023/04/06 12:17:52;;;;;;;21.30;12.83;;;13.10;51.60;;;;;;4861636;29;20424;-71
2023/04/06 12:20:17;;;;;;;17.73;10.77;;;13.10;52.90;;;;;;4880441;29;20047;-71
2023/04/06 12:22:43;;;;;;;17.87;11.40;;;13.20;52.50;;;;;;4877822;29;20302;-71
2023/04/06 12:25:09;;;;;;;18.70;12.17;;;13.20;53.20;;;;;;4878175;29;20041;-71
2023/04/06 12:27:35;;;;;;;17.73;12.20;;;13.30;52.90;;;;;;4871587;29;20053;-72
2023/04/06 12:30:01;;;;;;;19.30;13.30;;;13.30;53.30;;;;;;4878408;29;20045;-71
2023/04/06 12:32:27;;;;;;;16.00;11.40;;;13.30;54.30;;;;;;4878405;29;20116;-71
2023/04/06 12:34:53;;;;;;;13.13;8.90;;;13.30;54.50;;;;;;4878206;29;20399;-71
2023/04/06 12:37:20;;;;;;;13.03;8.90;;;13.30;55.50;;;;;;4864391;29;20043;-71